sensor_id;sensor_type;location;lat;lon;timestamp;P1;durP1;ratioP1;P2;durP2;ratioP2
34896;SDS011;43407;51.828;-2.298;2022-10-16T00:01:38;11.32;;;2.88;;
34896;SDS011;43407;51.828;-2.298;2022-10-16T00:04:04;10.68;;;2.70;;
34896;SDS011;43407;51.828;-2.298;2022-10-16T00:06:30;7.65;;;2.13;;
34896;SDS011;43407;51.828;-2.298;2022-10-16T00:09:01;11.93;;;2.60;;
34896;SDS011;43407;51.828;-2.298;2022-10-16T00:11:33;12.13;;;2.42;;
34896;SDS011;43407;51.828;-2.298;2022-10-16T00:16:33;8.85;;;2.28;;
34896;SDS011;43407;51.828;-2.298;2022-10-16T00:19:06;12.07;;;2.58;;
34896;SDS011;43407;51.828;-2.298;2022-10-16T00:21:34;11.52;;;2.35;;
34896;SDS011;43407;51.828;-2.298;2022-10-16T00:24:18;15.57;;;2.55;;
34896;SDS011;43407;51.828;-2.298;2022-10-16T00:26:59;14.88;;;2.13;;
34896;SDS011;43407;51.828;-2.298;2022-10-16T00:29:34;16.55;;;2.65;;
34896;SDS011;43407;51.828;-2.298;2022-10-16T00:32:10;13.27;;;2.33;;
34896;SDS011;43407;51.828;-2.298;2022-10-16T00:34:49;12.75;;;2.58;;
34896;SDS011;43407;51.828;-2.298;2022-10-16T00:37:14;14.03;;;2.37;;
34896;SDS011;43407;51.828;-2.298;2022-10-16T00:39:50;12.55;;;2.53;;
34896;SDS011;43407;51.828;-2.298;2022-10-16T00:42:16;14.48;;;2.00;;
34896;SDS011;43407;51.828;-2.298;2022-10-16T00:44:53;10.25;;;1.90;;
34896;SDS011;43407;51.828;-2.298;2022-10-16T00:53:17;9.35;;;1.80;;
34896;SDS011;43407;51.828;-2.298;2022-10-16T00:55:50;10.65;;;1.85;;
34896;SDS011;43407;51.828;-2.298;2022-10-16T00:58:24;8.32;;;1.52;;
34896;SDS011;43407;51.828;-2.298;2022-10-16T01:00:50;4.93;;;1.67;;
34896;SDS011;43407;51.828;-2.298;2022-10-16T01:03:22;6.57;;;1.50;;
34896;SDS011;43407;51.828;-2.298;2022-10-16T01:14:23;4.07;;;1.27;;
34896;SDS011;43407;51.828;-2.298;2022-10-16T01:17:01;9.25;;;1.33;;
34896;SDS011;43407;51.828;-2.298;2022-10-16T01:22:21;4.47;;;0.98;;
34896;SDS011;43407;51.828;-2.298;2022-10-16T01:24:51;3.00;;;0.90;;
34896;SDS011;43407;51.828;-2.298;2022-10-16T01:27:27;3.58;;;1.13;;
34896;SDS011;43407;51.828;-2.298;2022-10-16T01:35:05;9.82;;;1.40;;
34896;SDS011;43407;51.828;-2.298;2022-10-16T01:40:27;5.78;;;1.30;;
34896;SDS011;43407;51.828;-2.298;2022-10-16T01:43:01;5.97;;;1.50;;
34896;SDS011;43407;51.828;-2.298;2022-10-16T01:45:32;11.85;;;2.28;;
34896;SDS011;43407;51.828;-2.298;2022-10-16T01:48:02;8.07;;;1.42;;
34896;SDS011;43407;51.828;-2.298;2022-10-16T01:50:37;12.15;;;1.90;;
34896;SDS011;43407;51.828;-2.298;2022-10-16T01:53:12;8.80;;;1.70;;
34896;SDS011;43407;51.828;-2.298;2022-10-16T01:58:10;8.73;;;1.85;;
34896;SDS011;43407;51.828;-2.298;2022-10-16T02:00:44;12.07;;;2.22;;
34896;SDS011;43407;51.828;-2.298;2022-10-16T02:03:18;8.23;;;1.80;;
34896;SDS011;43407;51.828;-2.298;2022-10-16T02:05:53;12.25;;;2.28;;
34896;SDS011;43407;51.828;-2.298;2022-10-16T02:08:35;6.75;;;1.50;;
34896;SDS011;43407;51.828;-2.298;2022-10-16T02:11:05;6.53;;;1.52;;
34896;SDS011;43407;51.828;-2.298;2022-10-16T02:13:40;7.20;;;1.65;;
34896;SDS011;43407;51.828;-2.298;2022-10-16T02:16:13;7.53;;;1.50;;
34896;SDS011;43407;51.828;-2.298;2022-10-16T02:18:41;4.55;;;1.60;;
34896;SDS011;43407;51.828;-2.298;2022-10-16T02:27:15;9.48;;;2.60;;
34896;SDS011;43407;51.828;-2.298;2022-10-16T02:32:50;12.55;;;2.00;;
34896;SDS011;43407;51.828;-2.298;2022-10-16T02:35:18;11.05;;;2.35;;
34896;SDS011;43407;51.828;-2.298;2022-10-16T02:37:45;9.85;;;2.03;;
34896;SDS011;43407;51.828;-2.298;2022-10-16T02:40:12;15.10;;;2.40;;
34896;SDS011;43407;51.828;-2.298;2022-10-16T02:42:39;16.50;;;2.75;;
34896;SDS011;43407;51.828;-2.298;2022-10-16T02:45:08;12.07;;;2.40;;
34896;SDS011;43407;51.828;-2.298;2022-10-16T02:47:37;6.03;;;2.00;;
34896;SDS011;43407;51.828;-2.298;2022-10-16T02:50:08;12.20;;;2.25;;
34896;SDS011;43407;51.828;-2.298;2022-10-16T02:52:36;11.35;;;2.50;;
34896;SDS011;43407;51.828;-2.298;2022-10-16T02:55:06;10.63;;;2.22;;
34896;SDS011;43407;51.828;-2.298;2022-10-16T02:57:35;6.80;;;1.92;;
34896;SDS011;43407;51.828;-2.298;2022-10-16T03:00:03;6.63;;;1.95;;
34896;SDS011;43407;51.828;-2.298;2022-10-16T03:02:30;7.28;;;1.88;;
34896;SDS011;43407;51.828;-2.298;2022-10-16T03:04:55;7.30;;;1.65;;
34896;SDS011;43407;51.828;-2.298;2022-10-16T03:07:31;9.68;;;2.20;;
34896;SDS011;43407;51.828;-2.298;2022-10-16T03:09:58;6.53;;;1.67;;
34896;SDS011;43407;51.828;-2.298;2022-10-16T03:12:29;6.85;;;1.88;;
34896;SDS011;43407;51.828;-2.298;2022-10-16T03:14:57;6.72;;;1.77;;
34896;SDS011;43407;51.828;-2.298;2022-10-16T03:17:26;6.97;;;1.48;;
34896;SDS011;43407;51.828;-2.298;2022-10-16T03:19:51;5.53;;;1.58;;
34896;SDS011;43407;51.828;-2.298;2022-10-16T03:22:19;6.97;;;1.50;;
34896;SDS011;43407;51.828;-2.298;2022-10-16T03:24:45;3.67;;;1.40;;
34896;SDS011;43407;51.828;-2.298;2022-10-16T03:27:10;4.95;;;1.20;;
34896;SDS011;43407;51.828;-2.298;2022-10-16T03:29:43;4.32;;;1.48;;
34896;SDS011;43407;51.828;-2.298;2022-10-16T03:32:09;5.40;;;1.50;;
34896;SDS011;43407;51.828;-2.298;2022-10-16T03:34:39;4.75;;;1.30;;
34896;SDS011;43407;51.828;-2.298;2022-10-16T03:37:12;6.45;;;1.60;;
34896;SDS011;43407;51.828;-2.298;2022-10-16T03:39:58;6.65;;;2.03;;
34896;SDS011;43407;51.828;-2.298;2022-10-16T03:42:33;3.17;;;1.60;;
34896;SDS011;43407;51.828;-2.298;2022-10-16T03:45:16;9.30;;;2.10;;
34896;SDS011;43407;51.828;-2.298;2022-10-16T03:47:48;5.95;;;1.90;;
34896;SDS011;43407;51.828;-2.298;2022-10-16T03:50:13;9.68;;;2.85;;
34896;SDS011;43407;51.828;-2.298;2022-10-16T03:52:41;8.60;;;2.17;;
34896;SDS011;43407;51.828;-2.298;2022-10-16T03:55:07;10.20;;;2.05;;
34896;SDS011;43407;51.828;-2.298;2022-10-16T03:57:35;6.70;;;1.73;;
34896;SDS011;43407;51.828;-2.298;2022-10-16T04:00:04;10.55;;;2.40;;
34896;SDS011;43407;51.828;-2.298;2022-10-16T04:02:30;9.45;;;2.15;;
34896;SDS011;43407;51.828;-2.298;2022-10-16T04:04:55;7.20;;;1.80;;
34896;SDS011;43407;51.828;-2.298;2022-10-16T04:07:21;10.98;;;2.05;;
34896;SDS011;43407;51.828;-2.298;2022-10-16T04:09:49;5.05;;;1.80;;
34896;SDS011;43407;51.828;-2.298;2022-10-16T04:12:17;9.63;;;2.17;;
34896;SDS011;43407;51.828;-2.298;2022-10-16T04:14:42;10.40;;;1.90;;
34896;SDS011;43407;51.828;-2.298;2022-10-16T04:17:08;8.88;;;2.05;;
34896;SDS011;43407;51.828;-2.298;2022-10-16T04:19:33;12.07;;;2.28;;
34896;SDS011;43407;51.828;-2.298;2022-10-16T04:21:59;7.60;;;1.88;;
34896;SDS011;43407;51.828;-2.298;2022-10-16T04:24:27;10.05;;;2.15;;
34896;SDS011;43407;51.828;-2.298;2022-10-16T04:26:55;10.57;;;1.98;;
34896;SDS011;43407;51.828;-2.298;2022-10-16T04:29:20;3.53;;;1.40;;
34896;SDS011;43407;51.828;-2.298;2022-10-16T04:31:46;7.63;;;1.50;;
34896;SDS011;43407;51.828;-2.298;2022-10-16T04:34:12;13.68;;;1.75;;
34896;SDS011;43407;51.828;-2.298;2022-10-16T04:36:37;9.07;;;1.45;;
34896;SDS011;43407;51.828;-2.298;2022-10-16T04:39:05;11.75;;;1.83;;
34896;SDS011;43407;51.828;-2.298;2022-10-16T04:41:31;12.77;;;2.58;;
34896;SDS011;43407;51.828;-2.298;2022-10-16T04:44:04;8.75;;;1.63;;
34896;SDS011;43407;51.828;-2.298;2022-10-16T04:46:29;8.93;;;1.80;;
34896;SDS011;43407;51.828;-2.298;2022-10-16T04:49:02;7.15;;;1.55;;
34896;SDS011;43407;51.828;-2.298;2022-10-16T04:51:28;8.43;;;1.90;;
34896;SDS011;43407;51.828;-2.298;2022-10-16T04:53:56;6.72;;;1.88;;
34896;SDS011;43407;51.828;-2.298;2022-10-16T04:56:22;7.38;;;1.90;;
34896;SDS011;43407;51.828;-2.298;2022-10-16T04:58:48;10.15;;;1.75;;
34896;SDS011;43407;51.828;-2.298;2022-10-16T05:01:13;6.65;;;1.92;;
34896;SDS011;43407;51.828;-2.298;2022-10-16T05:03:39;11.10;;;1.90;;
34896;SDS011;43407;51.828;-2.298;2022-10-16T05:06:05;5.68;;;1.60;;
34896;SDS011;43407;51.828;-2.298;2022-10-16T05:08:31;8.95;;;1.90;;
34896;SDS011;43407;51.828;-2.298;2022-10-16T05:10:59;7.78;;;1.80;;
34896;SDS011;43407;51.828;-2.298;2022-10-16T05:13:34;8.07;;;1.98;;
34896;SDS011;43407;51.828;-2.298;2022-10-16T05:16:00;8.98;;;1.85;;
34896;SDS011;43407;51.828;-2.298;2022-10-16T05:18:28;10.02;;;1.98;;
34896;SDS011;43407;51.828;-2.298;2022-10-16T05:20:56;10.07;;;1.73;;
34896;SDS011;43407;51.828;-2.298;2022-10-16T05:23:24;8.77;;;2.28;;
34896;SDS011;43407;51.828;-2.298;2022-10-16T05:26:10;7.60;;;1.55;;
34896;SDS011;43407;51.828;-2.298;2022-10-16T05:28:45;10.23;;;2.35;;
34896;SDS011;43407;51.828;-2.298;2022-10-16T05:31:11;6.70;;;1.83;;
34896;SDS011;43407;51.828;-2.298;2022-10-16T05:33:41;7.90;;;1.65;;
34896;SDS011;43407;51.828;-2.298;2022-10-16T05:36:26;9.35;;;2.30;;
34896;SDS011;43407;51.828;-2.298;2022-10-16T05:38:54;8.95;;;1.95;;
34896;SDS011;43407;51.828;-2.298;2022-10-16T05:41:37;9.25;;;1.73;;
34896;SDS011;43407;51.828;-2.298;2022-10-16T05:44:07;11.35;;;1.70;;
34896;SDS011;43407;51.828;-2.298;2022-10-16T05:46:43;8.55;;;1.92;;
34896;SDS011;43407;51.828;-2.298;2022-10-16T05:49:14;9.95;;;1.75;;
34896;SDS011;43407;51.828;-2.298;2022-10-16T05:51:42;5.68;;;1.52;;
34896;SDS011;43407;51.828;-2.298;2022-10-16T05:54:08;9.32;;;1.75;;
34896;SDS011;43407;51.828;-2.298;2022-10-16T05:56:39;9.55;;;1.80;;
34896;SDS011;43407;51.828;-2.298;2022-10-16T05:59:04;11.07;;;2.08;;
34896;SDS011;43407;51.828;-2.298;2022-10-16T06:01:32;8.93;;;1.75;;
34896;SDS011;43407;51.828;-2.298;2022-10-16T06:03:57;5.13;;;1.55;;
34896;SDS011;43407;51.828;-2.298;2022-10-16T06:06:30;10.32;;;1.70;;
34896;SDS011;43407;51.828;-2.298;2022-10-16T06:08:58;10.38;;;1.80;;
34896;SDS011;43407;51.828;-2.298;2022-10-16T06:11:28;10.55;;;2.28;;
34896;SDS011;43407;51.828;-2.298;2022-10-16T06:13:58;10.25;;;2.13;;
34896;SDS011;43407;51.828;-2.298;2022-10-16T06:16:27;6.93;;;2.10;;
34896;SDS011;43407;51.828;-2.298;2022-10-16T06:18:56;12.07;;;2.25;;
34896;SDS011;43407;51.828;-2.298;2022-10-16T06:21:24;16.45;;;2.05;;
34896;SDS011;43407;51.828;-2.298;2022-10-16T06:23:53;10.95;;;2.17;;
34896;SDS011;43407;51.828;-2.298;2022-10-16T06:26:22;10.35;;;1.90;;
34896;SDS011;43407;51.828;-2.298;2022-10-16T06:28:49;8.27;;;1.85;;
34896;SDS011;43407;51.828;-2.298;2022-10-16T06:31:15;7.88;;;1.80;;
34896;SDS011;43407;51.828;-2.298;2022-10-16T06:33:41;8.43;;;1.52;;
34896;SDS011;43407;51.828;-2.298;2022-10-16T06:36:12;6.07;;;1.48;;
34896;SDS011;43407;51.828;-2.298;2022-10-16T06:41:27;9.77;;;1.90;;
34896;SDS011;43407;51.828;-2.298;2022-10-16T06:43:53;5.68;;;1.35;;
34896;SDS011;43407;51.828;-2.298;2022-10-16T06:46:20;7.82;;;1.58;;
34896;SDS011;43407;51.828;-2.298;2022-10-16T06:48:47;3.72;;;1.25;;
34896;SDS011;43407;51.828;-2.298;2022-10-16T06:51:14;10.00;;;1.70;;
34896;SDS011;43407;51.828;-2.298;2022-10-16T06:53:44;7.07;;;1.58;;
34896;SDS011;43407;51.828;-2.298;2022-10-16T06:58:41;7.28;;;1.52;;
34896;SDS011;43407;51.828;-2.298;2022-10-16T07:01:08;6.68;;;1.55;;
34896;SDS011;43407;51.828;-2.298;2022-10-16T07:03:38;3.67;;;1.30;;
34896;SDS011;43407;51.828;-2.298;2022-10-16T07:06:05;4.50;;;1.20;;
34896;SDS011;43407;51.828;-2.298;2022-10-16T07:08:37;7.15;;;1.70;;
34896;SDS011;43407;51.828;-2.298;2022-10-16T07:11:08;5.13;;;1.50;;
34896;SDS011;43407;51.828;-2.298;2022-10-16T07:13:35;3.28;;;1.10;;
34896;SDS011;43407;51.828;-2.298;2022-10-16T07:16:15;5.45;;;1.58;;
34896;SDS011;43407;51.828;-2.298;2022-10-16T07:18:45;8.98;;;1.48;;
34896;SDS011;43407;51.828;-2.298;2022-10-16T07:21:14;6.97;;;1.73;;
34896;SDS011;43407;51.828;-2.298;2022-10-16T07:23:45;6.28;;;1.38;;
34896;SDS011;43407;51.828;-2.298;2022-10-16T07:26:15;6.05;;;1.65;;
34896;SDS011;43407;51.828;-2.298;2022-10-16T07:28:40;4.32;;;1.75;;
34896;SDS011;43407;51.828;-2.298;2022-10-16T07:31:11;4.57;;;1.20;;
34896;SDS011;43407;51.828;-2.298;2022-10-16T07:33:41;4.88;;;1.52;;
34896;SDS011;43407;51.828;-2.298;2022-10-16T07:36:10;9.32;;;1.80;;
34896;SDS011;43407;51.828;-2.298;2022-10-16T07:38:36;7.50;;;1.67;;
34896;SDS011;43407;51.828;-2.298;2022-10-16T07:41:04;4.57;;;1.40;;
34896;SDS011;43407;51.828;-2.298;2022-10-16T07:43:40;7.18;;;2.00;;
34896;SDS011;43407;51.828;-2.298;2022-10-16T07:46:08;4.75;;;1.70;;
34896;SDS011;43407;51.828;-2.298;2022-10-16T07:48:36;3.70;;;1.48;;
34896;SDS011;43407;51.828;-2.298;2022-10-16T07:51:05;4.28;;;1.40;;
34896;SDS011;43407;51.828;-2.298;2022-10-16T07:53:38;4.65;;;1.40;;
34896;SDS011;43407;51.828;-2.298;2022-10-16T07:56:06;4.97;;;1.42;;
34896;SDS011;43407;51.828;-2.298;2022-10-16T07:58:33;5.38;;;1.60;;
34896;SDS011;43407;51.828;-2.298;2022-10-16T08:01:10;4.30;;;1.52;;
34896;SDS011;43407;51.828;-2.298;2022-10-16T08:03:54;5.72;;;1.63;;
34896;SDS011;43407;51.828;-2.298;2022-10-16T08:06:20;6.07;;;1.40;;
34896;SDS011;43407;51.828;-2.298;2022-10-16T08:08:46;4.15;;;1.17;;
34896;SDS011;43407;51.828;-2.298;2022-10-16T08:11:13;2.85;;;1.08;;
34896;SDS011;43407;51.828;-2.298;2022-10-16T08:13:40;6.60;;;1.60;;
34896;SDS011;43407;51.828;-2.298;2022-10-16T08:16:08;7.38;;;1.30;;
34896;SDS011;43407;51.828;-2.298;2022-10-16T08:18:38;4.57;;;1.30;;
34896;SDS011;43407;51.828;-2.298;2022-10-16T08:21:05;4.07;;;1.20;;
34896;SDS011;43407;51.828;-2.298;2022-10-16T08:23:31;3.35;;;1.27;;
34896;SDS011;43407;51.828;-2.298;2022-10-16T08:26:04;5.88;;;1.30;;
34896;SDS011;43407;51.828;-2.298;2022-10-16T08:28:31;6.90;;;1.73;;
34896;SDS011;43407;51.828;-2.298;2022-10-16T08:31:04;10.60;;;2.65;;
34896;SDS011;43407;51.828;-2.298;2022-10-16T08:33:43;4.55;;;1.70;;
34896;SDS011;43407;51.828;-2.298;2022-10-16T08:36:10;3.50;;;1.30;;
34896;SDS011;43407;51.828;-2.298;2022-10-16T08:38:39;6.95;;;1.90;;
34896;SDS011;43407;51.828;-2.298;2022-10-16T08:41:27;6.43;;;1.83;;
34896;SDS011;43407;51.828;-2.298;2022-10-16T08:50:13;5.78;;;1.80;;
34896;SDS011;43407;51.828;-2.298;2022-10-16T08:52:45;5.57;;;1.50;;
34896;SDS011;43407;51.828;-2.298;2022-10-16T08:55:56;5.80;;;1.40;;
34896;SDS011;43407;51.828;-2.298;2022-10-16T08:58:14;5.45;;;1.40;;
34896;SDS011;43407;51.828;-2.298;2022-10-16T09:00:41;6.88;;;1.92;;
34896;SDS011;43407;51.828;-2.298;2022-10-16T09:08:27;6.10;;;1.35;;
34896;SDS011;43407;51.828;-2.298;2022-10-16T09:11:20;5.22;;;1.40;;
34896;SDS011;43407;51.828;-2.298;2022-10-16T09:16:37;6.93;;;1.83;;
34896;SDS011;43407;51.828;-2.298;2022-10-16T09:19:22;4.50;;;1.73;;
34896;SDS011;43407;51.828;-2.298;2022-10-16T09:21:52;6.22;;;1.52;;
34896;SDS011;43407;51.828;-2.298;2022-10-16T09:24:19;5.25;;;1.40;;
34896;SDS011;43407;51.828;-2.298;2022-10-16T09:26:47;5.15;;;1.20;;
34896;SDS011;43407;51.828;-2.298;2022-10-16T09:29:17;8.68;;;1.80;;
34896;SDS011;43407;51.828;-2.298;2022-10-16T09:31:51;6.60;;;1.33;;
34896;SDS011;43407;51.828;-2.298;2022-10-16T09:36:46;6.55;;;1.83;;
34896;SDS011;43407;51.828;-2.298;2022-10-16T09:39:12;7.85;;;1.80;;
34896;SDS011;43407;51.828;-2.298;2022-10-16T09:41:38;8.70;;;1.92;;
34896;SDS011;43407;51.828;-2.298;2022-10-16T09:44:06;9.43;;;1.90;;
34896;SDS011;43407;51.828;-2.298;2022-10-16T09:46:41;7.25;;;2.05;;
34896;SDS011;43407;51.828;-2.298;2022-10-16T09:49:23;5.72;;;1.30;;
34896;SDS011;43407;51.828;-2.298;2022-10-16T09:51:50;8.77;;;1.65;;
34896;SDS011;43407;51.828;-2.298;2022-10-16T09:54:17;5.18;;;1.52;;
34896;SDS011;43407;51.828;-2.298;2022-10-16T09:56:44;5.35;;;2.33;;
34896;SDS011;43407;51.828;-2.298;2022-10-16T09:59:26;5.50;;;1.50;;
34896;SDS011;43407;51.828;-2.298;2022-10-16T10:01:53;4.10;;;1.30;;
34896;SDS011;43407;51.828;-2.298;2022-10-16T10:04:36;3.70;;;1.50;;
34896;SDS011;43407;51.828;-2.298;2022-10-16T10:07:03;4.97;;;1.52;;
34896;SDS011;43407;51.828;-2.298;2022-10-16T10:09:31;4.88;;;1.95;;
34896;SDS011;43407;51.828;-2.298;2022-10-16T10:12:00;3.22;;;1.25;;
34896;SDS011;43407;51.828;-2.298;2022-10-16T10:14:36;4.55;;;1.30;;
34896;SDS011;43407;51.828;-2.298;2022-10-16T10:22:59;5.80;;;1.40;;
34896;SDS011;43407;51.828;-2.298;2022-10-16T10:35:55;4.97;;;1.00;;
34896;SDS011;43407;51.828;-2.298;2022-10-16T10:55:21;4.55;;;1.02;;
34896;SDS011;43407;51.828;-2.298;2022-10-16T11:08:44;4.87;;;1.23;;
34896;SDS011;43407;51.828;-2.298;2022-10-16T11:11:20;4.50;;;1.27;;
34896;SDS011;43407;51.828;-2.298;2022-10-16T11:16:35;2.92;;;1.15;;
34896;SDS011;43407;51.828;-2.298;2022-10-16T11:22:09;4.32;;;1.40;;
34896;SDS011;43407;51.828;-2.298;2022-10-16T11:27:40;3.05;;;1.13;;
34896;SDS011;43407;51.828;-2.298;2022-10-16T11:30:16;4.45;;;1.20;;
34896;SDS011;43407;51.828;-2.298;2022-10-16T11:35:19;4.03;;;1.15;;
34896;SDS011;43407;51.828;-2.298;2022-10-16T11:37:51;4.80;;;1.50;;
34896;SDS011;43407;51.828;-2.298;2022-10-16T11:42:50;5.63;;;1.33;;
34896;SDS011;43407;51.828;-2.298;2022-10-16T11:50:42;4.93;;;1.30;;
34896;SDS011;43407;51.828;-2.298;2022-10-16T11:53:13;2.08;;;1.02;;
34896;SDS011;43407;51.828;-2.298;2022-10-16T11:55:44;3.67;;;1.00;;
34896;SDS011;43407;51.828;-2.298;2022-10-16T12:06:44;7.20;;;1.52;;
34896;SDS011;43407;51.828;-2.298;2022-10-16T12:09:15;3.03;;;0.90;;
34896;SDS011;43407;51.828;-2.298;2022-10-16T12:11:50;3.95;;;1.60;;
34896;SDS011;43407;51.828;-2.298;2022-10-16T12:16:56;6.93;;;1.23;;
34896;SDS011;43407;51.828;-2.298;2022-10-16T12:19:24;7.10;;;1.50;;
34896;SDS011;43407;51.828;-2.298;2022-10-16T12:21:50;4.70;;;1.58;;
34896;SDS011;43407;51.828;-2.298;2022-10-16T12:27:06;4.05;;;1.30;;
34896;SDS011;43407;51.828;-2.298;2022-10-16T12:29:48;3.33;;;1.20;;
34896;SDS011;43407;51.828;-2.298;2022-10-16T12:34:59;3.35;;;1.20;;
34896;SDS011;43407;51.828;-2.298;2022-10-16T12:37:35;7.13;;;1.58;;
34896;SDS011;43407;51.828;-2.298;2022-10-16T12:40:15;4.13;;;1.38;;
34896;SDS011;43407;51.828;-2.298;2022-10-16T12:42:49;3.30;;;1.30;;
34896;SDS011;43407;51.828;-2.298;2022-10-16T12:47:54;2.40;;;1.05;;
34896;SDS011;43407;51.828;-2.298;2022-10-16T12:53:00;4.88;;;1.40;;
34896;SDS011;43407;51.828;-2.298;2022-10-16T12:55:31;3.83;;;1.17;;
34896;SDS011;43407;51.828;-2.298;2022-10-16T13:23:06;3.40;;;1.27;;
34896;SDS011;43407;51.828;-2.298;2022-10-16T13:28:21;6.88;;;1.38;;
34896;SDS011;43407;51.828;-2.298;2022-10-16T13:30:51;5.72;;;1.50;;
34896;SDS011;43407;51.828;-2.298;2022-10-16T13:33:39;6.03;;;1.45;;
34896;SDS011;43407;51.828;-2.298;2022-10-16T13:36:26;5.25;;;1.30;;
34896;SDS011;43407;51.828;-2.298;2022-10-16T13:39:15;4.10;;;1.60;;
34896;SDS011;43407;51.828;-2.298;2022-10-16T13:44:13;2.95;;;1.20;;
34896;SDS011;43407;51.828;-2.298;2022-10-16T13:46:41;3.70;;;1.45;;
34896;SDS011;43407;51.828;-2.298;2022-10-16T13:49:14;7.85;;;1.38;;
34896;SDS011;43407;51.828;-2.298;2022-10-16T13:51:41;6.20;;;1.80;;
34896;SDS011;43407;51.828;-2.298;2022-10-16T13:54:09;5.05;;;1.50;;
34896;SDS011;43407;51.828;-2.298;2022-10-16T13:56:35;4.13;;;1.25;;
34896;SDS011;43407;51.828;-2.298;2022-10-16T13:59:03;5.35;;;1.38;;
34896;SDS011;43407;51.828;-2.298;2022-10-16T14:01:48;6.72;;;1.40;;
34896;SDS011;43407;51.828;-2.298;2022-10-16T14:04:16;6.78;;;1.90;;
34896;SDS011;43407;51.828;-2.298;2022-10-16T14:06:42;6.38;;;2.25;;
34896;SDS011;43407;51.828;-2.298;2022-10-16T14:09:47;5.80;;;1.52;;
34896;SDS011;43407;51.828;-2.298;2022-10-16T14:12:02;7.22;;;1.65;;
34896;SDS011;43407;51.828;-2.298;2022-10-16T14:14:51;7.40;;;1.90;;
34896;SDS011;43407;51.828;-2.298;2022-10-16T14:17:28;7.63;;;2.28;;
34896;SDS011;43407;51.828;-2.298;2022-10-16T14:19:58;8.32;;;1.92;;
34896;SDS011;43407;51.828;-2.298;2022-10-16T14:22:33;6.88;;;1.63;;
34896;SDS011;43407;51.828;-2.298;2022-10-16T14:24:59;6.37;;;1.83;;
34896;SDS011;43407;51.828;-2.298;2022-10-16T14:27:33;7.03;;;2.05;;
34896;SDS011;43407;51.828;-2.298;2022-10-16T14:32:37;4.68;;;1.30;;
34896;SDS011;43407;51.828;-2.298;2022-10-16T14:35:21;7.03;;;1.73;;
34896;SDS011;43407;51.828;-2.298;2022-10-16T14:37:51;4.10;;;1.38;;
34896;SDS011;43407;51.828;-2.298;2022-10-16T14:40:22;4.75;;;1.38;;
34896;SDS011;43407;51.828;-2.298;2022-10-16T14:42:53;5.72;;;1.75;;
34896;SDS011;43407;51.828;-2.298;2022-10-16T14:45:20;7.57;;;2.00;;
34896;SDS011;43407;51.828;-2.298;2022-10-16T14:47:48;7.28;;;1.55;;
34896;SDS011;43407;51.828;-2.298;2022-10-16T14:50:16;5.43;;;1.50;;
34896;SDS011;43407;51.828;-2.298;2022-10-16T14:52:44;5.68;;;1.65;;
34896;SDS011;43407;51.828;-2.298;2022-10-16T14:55:09;5.60;;;2.00;;
34896;SDS011;43407;51.828;-2.298;2022-10-16T14:57:36;8.32;;;1.55;;
34896;SDS011;43407;51.828;-2.298;2022-10-16T15:00:02;8.52;;;1.63;;
34896;SDS011;43407;51.828;-2.298;2022-10-16T15:02:31;9.85;;;1.75;;
34896;SDS011;43407;51.828;-2.298;2022-10-16T15:04:57;7.45;;;1.92;;
34896;SDS011;43407;51.828;-2.298;2022-10-16T15:07:24;4.28;;;1.40;;
34896;SDS011;43407;51.828;-2.298;2022-10-16T15:09:49;4.13;;;1.40;;
34896;SDS011;43407;51.828;-2.298;2022-10-16T15:12:15;5.60;;;1.65;;
34896;SDS011;43407;51.828;-2.298;2022-10-16T15:14:41;5.20;;;1.75;;
34896;SDS011;43407;51.828;-2.298;2022-10-16T15:17:10;5.82;;;1.63;;
34896;SDS011;43407;51.828;-2.298;2022-10-16T15:19:54;4.88;;;1.90;;
34896;SDS011;43407;51.828;-2.298;2022-10-16T15:22:20;6.28;;;1.80;;
34896;SDS011;43407;51.828;-2.298;2022-10-16T15:24:48;4.78;;;1.63;;
34896;SDS011;43407;51.828;-2.298;2022-10-16T15:27:14;6.57;;;1.80;;
34896;SDS011;43407;51.828;-2.298;2022-10-16T15:29:39;6.25;;;1.52;;
34896;SDS011;43407;51.828;-2.298;2022-10-16T15:32:05;5.63;;;1.88;;
34896;SDS011;43407;51.828;-2.298;2022-10-16T15:34:31;4.25;;;1.75;;
34896;SDS011;43407;51.828;-2.298;2022-10-16T15:36:58;6.30;;;1.95;;
34896;SDS011;43407;51.828;-2.298;2022-10-16T15:39:28;7.15;;;1.73;;
34896;SDS011;43407;51.828;-2.298;2022-10-16T15:41:53;6.10;;;1.58;;
34896;SDS011;43407;51.828;-2.298;2022-10-16T15:44:19;5.47;;;1.67;;
34896;SDS011;43407;51.828;-2.298;2022-10-16T15:46:47;6.60;;;1.92;;
34896;SDS011;43407;51.828;-2.298;2022-10-16T15:49:15;3.67;;;1.40;;
34896;SDS011;43407;51.828;-2.298;2022-10-16T15:51:41;7.32;;;1.58;;
34896;SDS011;43407;51.828;-2.298;2022-10-16T15:54:08;5.72;;;1.63;;
34896;SDS011;43407;51.828;-2.298;2022-10-16T15:56:33;7.72;;;1.80;;
34896;SDS011;43407;51.828;-2.298;2022-10-16T15:59:04;6.53;;;2.10;;
34896;SDS011;43407;51.828;-2.298;2022-10-16T16:01:33;6.75;;;2.40;;
34896;SDS011;43407;51.828;-2.298;2022-10-16T16:03:59;7.15;;;1.50;;
34896;SDS011;43407;51.828;-2.298;2022-10-16T16:06:25;8.38;;;2.20;;
34896;SDS011;43407;51.828;-2.298;2022-10-16T16:08:51;7.35;;;2.15;;
34896;SDS011;43407;51.828;-2.298;2022-10-16T16:11:17;5.72;;;1.85;;
34896;SDS011;43407;51.828;-2.298;2022-10-16T16:13:43;5.95;;;1.63;;
34896;SDS011;43407;51.828;-2.298;2022-10-16T16:16:13;11.18;;;1.73;;
34896;SDS011;43407;51.828;-2.298;2022-10-16T16:18:39;9.07;;;2.35;;
34896;SDS011;43407;51.828;-2.298;2022-10-16T16:21:06;12.70;;;1.90;;
34896;SDS011;43407;51.828;-2.298;2022-10-16T16:23:31;6.80;;;1.80;;
34896;SDS011;43407;51.828;-2.298;2022-10-16T16:28:29;10.75;;;2.83;;
34896;SDS011;43407;51.828;-2.298;2022-10-16T16:30:55;9.52;;;1.90;;
34896;SDS011;43407;51.828;-2.298;2022-10-16T16:33:20;12.55;;;2.78;;
34896;SDS011;43407;51.828;-2.298;2022-10-16T16:35:47;7.10;;;1.92;;
34896;SDS011;43407;51.828;-2.298;2022-10-16T16:38:13;6.95;;;1.63;;
34896;SDS011;43407;51.828;-2.298;2022-10-16T16:40:38;5.97;;;1.83;;
34896;SDS011;43407;51.828;-2.298;2022-10-16T16:43:06;13.13;;;4.70;;
34896;SDS011;43407;51.828;-2.298;2022-10-16T16:45:35;25.67;;;9.63;;
34896;SDS011;43407;51.828;-2.298;2022-10-16T16:48:01;37.65;;;15.65;;
34896;SDS011;43407;51.828;-2.298;2022-10-16T16:50:26;19.73;;;10.32;;
34896;SDS011;43407;51.828;-2.298;2022-10-16T16:52:52;18.30;;;7.13;;
34896;SDS011;43407;51.828;-2.298;2022-10-16T16:55:17;13.55;;;4.75;;
34896;SDS011;43407;51.828;-2.298;2022-10-16T16:57:43;10.98;;;3.30;;
34896;SDS011;43407;51.828;-2.298;2022-10-16T17:00:08;10.98;;;3.15;;
34896;SDS011;43407;51.828;-2.298;2022-10-16T17:02:34;10.65;;;3.10;;
34896;SDS011;43407;51.828;-2.298;2022-10-16T17:05:00;8.65;;;2.63;;
34896;SDS011;43407;51.828;-2.298;2022-10-16T17:07:25;8.68;;;2.80;;
34896;SDS011;43407;51.828;-2.298;2022-10-16T17:09:52;9.70;;;3.08;;
34896;SDS011;43407;51.828;-2.298;2022-10-16T17:12:17;7.50;;;3.10;;
34896;SDS011;43407;51.828;-2.298;2022-10-16T17:14:43;5.93;;;2.20;;
34896;SDS011;43407;51.828;-2.298;2022-10-16T17:17:08;8.80;;;2.45;;
34896;SDS011;43407;51.828;-2.298;2022-10-16T17:19:34;10.80;;;2.40;;
34896;SDS011;43407;51.828;-2.298;2022-10-16T17:22:00;9.95;;;2.50;;
34896;SDS011;43407;51.828;-2.298;2022-10-16T17:24:25;7.97;;;2.13;;
34896;SDS011;43407;51.828;-2.298;2022-10-16T17:26:50;8.38;;;2.67;;
34896;SDS011;43407;51.828;-2.298;2022-10-16T17:29:16;7.45;;;2.20;;
34896;SDS011;43407;51.828;-2.298;2022-10-16T17:31:42;7.38;;;2.60;;
34896;SDS011;43407;51.828;-2.298;2022-10-16T17:34:08;10.38;;;2.50;;
34896;SDS011;43407;51.828;-2.298;2022-10-16T17:36:36;7.93;;;2.83;;
34896;SDS011;43407;51.828;-2.298;2022-10-16T17:39:03;12.45;;;3.25;;
34896;SDS011;43407;51.828;-2.298;2022-10-16T17:41:31;12.93;;;3.10;;
34896;SDS011;43407;51.828;-2.298;2022-10-16T17:43:57;10.63;;;3.22;;
34896;SDS011;43407;51.828;-2.298;2022-10-16T17:46:23;7.78;;;2.55;;
34896;SDS011;43407;51.828;-2.298;2022-10-16T17:48:50;9.50;;;2.95;;